createdAt,value
2022-08-23T00:01:45.789Z,18.42
2022-08-23T00:04:18.155Z,18.42
2022-08-23T00:06:52.577Z,18.44
2022-08-23T00:09:22.500Z,18.46
2022-08-23T00:11:52.678Z,18.47
2022-08-23T00:14:24.704Z,18.46
2022-08-23T00:16:54.211Z,18.46
2022-08-23T00:19:24.084Z,18.47
2022-08-23T00:21:57.126Z,18.50
2022-08-23T00:24:27.499Z,18.52
2022-08-23T00:26:59.728Z,18.54
2022-08-23T00:29:31.320Z,18.56
2022-08-23T00:31:59.940Z,18.57
2022-08-23T00:34:28.143Z,18.56
2022-08-23T00:36:56.770Z,18.56
2022-08-23T00:39:26.185Z,18.55
2022-08-23T00:41:59.824Z,18.56
2022-08-23T00:44:52.176Z,18.56
2022-08-23T00:47:40.729Z,18.58
2022-08-23T00:50:23.402Z,18.58
2022-08-23T00:53:07.965Z,18.59
2022-08-23T00:55:38.469Z,18.58
2022-08-23T00:58:07.922Z,18.57
2022-08-23T01:00:36.265Z,18.58
2022-08-23T01:03:07.970Z,18.57
2022-08-23T01:05:47.303Z,18.57
2022-08-23T01:08:15.877Z,18.59
2022-08-23T01:10:50.017Z,18.57
2022-08-23T01:13:29.423Z,18.58
2022-08-23T01:16:05.221Z,18.57
2022-08-23T01:18:33.891Z,18.58
2022-08-23T01:21:10.512Z,18.60
2022-08-23T01:23:43.555Z,18.60
2022-08-23T01:26:13.595Z,18.59
2022-08-23T01:28:45.873Z,18.59
2022-08-23T01:31:18.727Z,18.57
2022-08-23T01:33:58.317Z,18.59
2022-08-23T01:36:26.745Z,18.61
2022-08-23T01:38:55.440Z,18.63
2022-08-23T01:41:24.242Z,18.65
2022-08-23T01:43:52.369Z,18.66
2022-08-23T01:46:24.335Z,18.68
2022-08-23T01:48:54.954Z,18.68
2022-08-23T01:51:25.000Z,18.69
2022-08-23T01:53:54.313Z,18.68
2022-08-23T01:56:28.107Z,18.68
2022-08-23T01:59:11.740Z,18.66
2022-08-23T02:01:49.335Z,18.66
2022-08-23T02:04:21.667Z,18.63
2022-08-23T02:06:49.253Z,18.61
2022-08-23T02:09:22.756Z,18.55
2022-08-23T02:11:57.468Z,18.56
2022-08-23T02:14:34.141Z,18.56
2022-08-23T02:17:08.621Z,18.56
2022-08-23T02:19:38.385Z,18.55
2022-08-23T02:22:08.320Z,18.54
2022-08-23T02:24:40.520Z,18.53
2022-08-23T02:27:09.317Z,18.53
2022-08-23T02:29:40.077Z,18.51
2022-08-23T02:32:12.532Z,18.49
2022-08-23T02:34:41.856Z,18.49
2022-08-23T02:37:11.951Z,18.48
2022-08-23T02:39:41.232Z,18.50
2022-08-23T02:42:11.682Z,18.52
2022-08-23T02:44:42.073Z,18.53
2022-08-23T02:47:11.766Z,18.51
2022-08-23T02:49:42.064Z,18.49
2022-08-23T02:52:10.244Z,18.46
2022-08-23T02:54:38.855Z,18.43
2022-08-23T02:57:07.123Z,18.42
2022-08-23T02:59:35.343Z,18.43
2022-08-23T03:02:03.667Z,18.45
2022-08-23T03:04:36.447Z,18.45
2022-08-23T03:07:06.163Z,18.44
2022-08-23T03:09:35.433Z,18.41
2022-08-23T03:12:04.332Z,18.38
2022-08-23T03:14:34.494Z,18.33
2022-08-23T03:17:07.133Z,18.29
2022-08-23T03:19:35.390Z,18.26
2022-08-23T03:22:03.447Z,18.27
2022-08-23T03:24:31.908Z,18.28
2022-08-23T03:27:01.716Z,18.30
2022-08-23T03:29:31.276Z,18.31
2022-08-23T03:32:04.254Z,18.30
2022-08-23T03:34:38.269Z,18.29
2022-08-23T03:37:08.232Z,18.29
2022-08-23T03:39:37.372Z,18.30
2022-08-23T03:42:07.313Z,18.31
2022-08-23T03:44:35.821Z,18.32
2022-08-23T03:47:05.728Z,18.33
2022-08-23T03:49:34.763Z,18.33
2022-08-23T03:52:05.584Z,18.35
2022-08-23T03:54:34.269Z,18.37
2022-08-23T03:57:06.556Z,18.36
2022-08-23T03:59:38.222Z,18.35
2022-08-23T04:02:09.059Z,18.34
2022-08-23T04:04:37.417Z,18.35
2022-08-23T04:07:27.858Z,18.37
2022-08-23T04:09:57.717Z,18.38
2022-08-23T04:12:27.934Z,18.43
2022-08-23T04:14:56.743Z,18.46
2022-08-23T04:17:25.378Z,18.46
2022-08-23T04:19:54.335Z,18.49
2022-08-23T04:22:23.619Z,18.50
2022-08-23T04:24:51.923Z,18.50
2022-08-23T04:27:21.231Z,18.53
2022-08-23T04:29:49.685Z,18.55
2022-08-23T04:32:28.237Z,18.55
2022-08-23T04:34:57.813Z,18.51
2022-08-23T04:37:27.441Z,18.48
2022-08-23T04:40:13.942Z,18.43
2022-08-23T04:42:44.112Z,18.41
2022-08-23T04:45:13.518Z,18.41
2022-08-23T04:47:45.000Z,18.44
2022-08-23T04:50:13.494Z,18.46
2022-08-23T04:53:00.148Z,18.48
2022-08-23T04:55:29.067Z,18.50
2022-08-23T04:58:07.769Z,18.50
2022-08-23T05:00:42.909Z,18.51
2022-08-23T05:03:11.644Z,18.50
2022-08-23T05:05:41.203Z,18.51
2022-08-23T05:08:09.699Z,18.54
2022-08-23T05:10:42.634Z,18.56
2022-08-23T05:13:11.333Z,18.59
2022-08-23T05:15:39.641Z,18.62
2022-08-23T05:18:08.073Z,18.66
2022-08-23T05:20:37.899Z,18.71
2022-08-23T05:23:06.451Z,18.74
2022-08-23T05:25:49.075Z,18.77
2022-08-23T05:28:28.210Z,18.79
2022-08-23T05:30:59.973Z,18.81
2022-08-23T05:33:34.037Z,18.83
2022-08-23T05:36:03.282Z,18.85
2022-08-23T05:38:31.982Z,18.88
2022-08-23T05:41:01.673Z,18.91
2022-08-23T05:43:34.891Z,18.96
2022-08-23T05:46:05.669Z,19.00
2022-08-23T05:48:40.129Z,19.03
2022-08-23T05:51:11.989Z,19.06
2022-08-23T05:53:40.987Z,19.10
2022-08-23T05:56:12.158Z,19.14
2022-08-23T05:58:52.127Z,19.17
2022-08-23T06:01:28.661Z,19.18
2022-08-23T06:04:01.067Z,19.20
2022-08-23T06:06:34.978Z,19.24
2022-08-23T06:09:08.652Z,19.29
2022-08-23T06:11:37.989Z,19.36
2022-08-23T06:14:08.961Z,19.43
2022-08-23T06:16:42.976Z,19.49
2022-08-23T06:19:14.894Z,19.55
2022-08-23T06:21:48.735Z,19.63
2022-08-23T06:24:23.754Z,19.69
2022-08-23T06:27:03.070Z,19.76
2022-08-23T06:29:31.445Z,19.86
2022-08-23T06:32:18.641Z,19.98
2022-08-23T06:35:31.419Z,20.08
2022-08-23T06:38:04.230Z,20.21
2022-08-23T06:40:51.337Z,20.37
2022-08-23T06:43:34.799Z,20.50
2022-08-23T06:46:11.822Z,20.56
2022-08-23T06:48:41.950Z,20.66
2022-08-23T06:51:15.049Z,20.75
2022-08-23T06:53:58.256Z,20.81
2022-08-23T06:56:56.879Z,20.90
2022-08-23T06:59:34.140Z,20.89
2022-08-23T07:02:16.394Z,20.95
2022-08-23T07:05:00.152Z,21.07
2022-08-23T07:07:47.010Z,21.16
2022-08-23T07:10:16.399Z,21.26
2022-08-23T07:12:45.351Z,21.41
2022-08-23T07:15:14.572Z,21.59
2022-08-23T07:17:47.300Z,21.72
2022-08-23T07:20:15.835Z,21.84
2022-08-23T07:22:47.762Z,21.93
2022-08-23T07:25:17.216Z,22.04
2022-08-23T07:27:50.555Z,22.14
2022-08-23T07:30:21.668Z,22.16
2022-08-23T07:32:51.432Z,22.27
2022-08-23T07:35:23.640Z,22.37
2022-08-23T07:37:57.038Z,22.44
2022-08-23T07:40:28.587Z,22.45
2022-08-23T07:42:59.570Z,22.48
2022-08-23T07:45:30.844Z,22.44
2022-08-23T07:48:02.823Z,22.46
2022-08-23T07:50:37.359Z,22.48
2022-08-23T07:53:31.790Z,22.53
2022-08-23T07:56:09.282Z,22.59
2022-08-23T07:58:58.443Z,22.69
2022-08-23T08:01:56.711Z,22.78
2022-08-23T08:04:26.404Z,22.86
2022-08-23T08:07:17.661Z,22.95
2022-08-23T08:09:46.694Z,23.02
2022-08-23T08:12:16.510Z,23.08
2022-08-23T08:14:48.292Z,23.13
2022-08-23T08:17:18.646Z,23.20
2022-08-23T08:20:27.433Z,23.23
2022-08-23T08:23:22.770Z,23.31
2022-08-23T08:26:12.278Z,23.41
2022-08-23T08:28:48.046Z,23.56
2022-08-23T08:31:18.183Z,23.73
2022-08-23T08:33:46.755Z,23.83
2022-08-23T08:36:31.387Z,23.97
2022-08-23T08:39:00.990Z,24.21
2022-08-23T08:41:45.027Z,24.35
2022-08-23T08:44:25.336Z,24.28
2022-08-23T08:46:59.159Z,24.11
2022-08-23T08:49:36.711Z,23.98
2022-08-23T08:52:15.025Z,23.83
2022-08-23T08:54:48.286Z,23.80
2022-08-23T08:57:25.270Z,23.79
2022-08-23T09:00:00.419Z,23.86
2022-08-23T09:02:35.146Z,23.92
2022-08-23T09:05:17.375Z,23.93
2022-08-23T09:08:00.726Z,23.92
2022-08-23T09:10:58.625Z,23.91
2022-08-23T09:13:56.951Z,23.79
2022-08-23T09:16:39.213Z,23.61
2022-08-23T09:19:09.313Z,23.53
2022-08-23T09:21:45.603Z,23.55
2022-08-23T09:24:14.847Z,23.64
2022-08-23T09:27:00.389Z,23.70
2022-08-23T09:29:31.490Z,23.70
2022-08-23T09:32:02.800Z,23.76
2022-08-23T09:34:43.208Z,23.82
2022-08-23T09:37:19.251Z,23.90
2022-08-23T09:40:12.561Z,24.05
2022-08-23T09:42:41.088Z,24.20
2022-08-23T09:45:33.102Z,24.24
2022-08-23T09:48:06.384Z,24.33
2022-08-23T09:50:41.641Z,24.34
2022-08-23T09:53:14.558Z,24.38
2022-08-23T09:55:48.298Z,24.50
2022-08-23T09:58:24.432Z,24.59
2022-08-23T10:01:12.930Z,24.65
2022-08-23T10:03:43.574Z,24.70
2022-08-23T10:06:33.422Z,24.76
2022-08-23T10:09:07.152Z,24.81
2022-08-23T10:11:40.059Z,24.85
2022-08-23T10:14:09.670Z,24.98
2022-08-23T10:16:52.584Z,25.13
2022-08-23T10:19:28.617Z,25.15
2022-08-23T10:22:03.808Z,25.15
2022-08-23T10:24:43.220Z,25.17
2022-08-23T10:27:46.016Z,25.21
2022-08-23T10:30:16.596Z,25.23
2022-08-23T10:33:00.245Z,25.25
2022-08-23T10:35:38.505Z,25.34
2022-08-23T10:38:40.390Z,25.41
2022-08-23T10:41:24.553Z,25.59
2022-08-23T10:44:08.599Z,25.69
2022-08-23T10:46:44.592Z,25.71
2022-08-23T10:49:14.990Z,25.74
2022-08-23T10:51:51.889Z,25.82
2022-08-23T10:54:34.584Z,26.01
2022-08-23T10:57:04.425Z,26.09
2022-08-23T10:59:36.585Z,26.09
2022-08-23T11:02:18.984Z,26.02
2022-08-23T11:04:56.228Z,26.01
2022-08-23T11:07:33.546Z,25.89
2022-08-23T11:10:16.960Z,25.89
2022-08-23T11:12:54.724Z,25.90
2022-08-23T11:15:37.796Z,26.07
2022-08-23T11:18:39.442Z,26.23
2022-08-23T11:21:32.856Z,26.31
2022-08-23T11:24:29.673Z,26.39
2022-08-23T11:27:06.371Z,26.54
2022-08-23T11:29:41.387Z,26.67
2022-08-23T11:32:42.531Z,26.72
2022-08-23T11:35:36.491Z,26.72
2022-08-23T11:38:06.581Z,26.67
2022-08-23T11:40:58.014Z,26.62
2022-08-23T11:43:34.476Z,26.59
2022-08-23T11:46:30.522Z,26.54
2022-08-23T11:49:30.636Z,26.47
2022-08-23T11:52:10.713Z,26.46
2022-08-23T11:55:02.101Z,26.46
2022-08-23T11:57:46.747Z,26.47
2022-08-23T12:00:29.072Z,26.49
2022-08-23T12:03:04.205Z,26.49
2022-08-23T12:06:39.254Z,26.51
2022-08-23T12:09:21.916Z,26.49
2022-08-23T12:12:25.248Z,26.53
2022-08-23T12:14:56.307Z,26.54
2022-08-23T12:18:00.936Z,26.55
2022-08-23T12:20:31.638Z,26.55
2022-08-23T12:23:12.161Z,26.63
2022-08-23T12:25:41.426Z,26.62
2022-08-23T12:28:32.747Z,26.61
2022-08-23T12:31:14.224Z,26.58
2022-08-23T12:33:52.597Z,26.54
2022-08-23T12:36:40.209Z,26.54
2022-08-23T12:39:21.674Z,26.53
2022-08-23T12:41:55.193Z,26.53
2022-08-23T12:44:25.726Z,26.52
2022-08-23T12:46:54.718Z,26.59
2022-08-23T12:49:30.153Z,26.62
2022-08-23T12:52:00.369Z,26.66
2022-08-23T12:54:37.785Z,26.69
2022-08-23T12:57:10.945Z,26.79
2022-08-23T12:59:46.841Z,26.94
2022-08-23T13:02:23.406Z,27.02
2022-08-23T13:04:53.078Z,27.06
2022-08-23T13:07:22.967Z,27.15
2022-08-23T13:09:53.124Z,27.20
2022-08-23T13:12:22.827Z,27.18
2022-08-23T13:14:53.232Z,27.16
2022-08-23T13:17:31.328Z,27.16
2022-08-23T13:20:21.706Z,27.17
2022-08-23T13:23:05.157Z,27.21
2022-08-23T13:25:36.389Z,27.25
2022-08-23T13:28:07.253Z,27.32
2022-08-23T13:30:38.395Z,27.32
2022-08-23T13:33:21.614Z,27.31
2022-08-23T13:35:52.719Z,27.37
2022-08-23T13:38:31.510Z,27.38
2022-08-23T13:41:02.831Z,27.40
2022-08-23T13:43:35.700Z,27.39
2022-08-23T13:46:14.298Z,27.42
2022-08-23T13:48:49.049Z,27.52
2022-08-23T13:51:30.344Z,27.57
2022-08-23T13:54:01.740Z,27.60
2022-08-23T13:56:33.918Z,27.66
2022-08-23T13:59:05.168Z,27.66
2022-08-23T14:01:33.705Z,27.69
2022-08-23T14:04:02.082Z,27.65
2022-08-23T14:06:30.249Z,27.61
2022-08-23T14:08:58.568Z,27.65
2022-08-23T14:11:26.751Z,27.62
2022-08-23T14:13:55.061Z,27.69
2022-08-23T14:16:39.246Z,27.72
2022-08-23T14:19:54.332Z,27.66
2022-08-23T14:21:58.655Z,27.63
2022-08-23T14:24:27.650Z,27.63
2022-08-23T14:26:56.744Z,27.57
2022-08-23T14:29:27.546Z,27.56
2022-08-23T14:31:57.452Z,27.55
2022-08-23T14:34:26.178Z,27.51
2022-08-23T14:39:43.047Z,27.47
2022-08-23T14:42:16.672Z,27.53
2022-08-23T14:44:44.866Z,27.54
2022-08-23T14:47:13.219Z,27.54
2022-08-23T14:49:41.386Z,27.53
2022-08-23T14:52:13.229Z,27.53
2022-08-23T14:54:44.914Z,27.56
2022-08-23T14:57:13.018Z,27.60
2022-08-23T14:59:41.278Z,27.55
2022-08-23T15:02:13.106Z,27.52
2022-08-23T15:04:41.970Z,27.46
2022-08-23T15:07:18.094Z,27.44
2022-08-23T15:09:53.846Z,27.42
2022-08-23T15:15:15.664Z,27.36
2022-08-23T15:17:51.910Z,27.29
2022-08-23T15:20:21.439Z,27.26
2022-08-23T15:22:52.370Z,27.19
2022-08-23T15:25:29.473Z,27.03
2022-08-23T15:27:59.641Z,26.90
2022-08-23T15:30:30.305Z,26.78
2022-08-23T15:33:03.927Z,26.68
2022-08-23T15:35:38.393Z,26.65
2022-08-23T15:38:09.833Z,26.65
2022-08-23T15:40:39.845Z,26.64
2022-08-23T15:43:09.235Z,26.58
2022-08-23T15:45:40.961Z,26.43
2022-08-23T15:48:24.426Z,26.26
2022-08-23T15:50:53.586Z,26.11
2022-08-23T15:53:22.630Z,25.93
2022-08-23T15:55:52.381Z,25.82
2022-08-23T15:58:24.216Z,25.72
2022-08-23T16:00:54.449Z,25.62
2022-08-23T16:03:25.341Z,25.54
2022-08-23T16:05:55.021Z,25.46
2022-08-23T16:08:26.974Z,25.35
2022-08-23T16:10:56.489Z,25.34
2022-08-23T16:13:26.294Z,25.31
2022-08-23T16:15:55.037Z,25.27
2022-08-23T16:18:23.984Z,25.23
2022-08-23T16:20:54.248Z,25.19
2022-08-23T16:23:25.810Z,25.16
2022-08-23T16:25:59.118Z,25.13
2022-08-23T16:28:29.805Z,25.11
2022-08-23T16:30:58.810Z,25.07
2022-08-23T16:33:27.877Z,24.98
2022-08-23T16:35:56.777Z,24.89
2022-08-23T16:38:25.388Z,24.82
2022-08-23T16:40:54.537Z,24.80
2022-08-23T16:43:23.543Z,24.76
2022-08-23T16:45:52.423Z,24.71
2022-08-23T16:48:21.783Z,24.66
2022-08-23T16:50:50.078Z,24.64
2022-08-23T16:53:18.788Z,24.65
2022-08-23T16:55:47.279Z,24.65
2022-08-23T16:58:15.537Z,24.66
2022-08-23T17:00:43.756Z,24.68
2022-08-23T17:03:14.788Z,24.69
2022-08-23T17:05:42.924Z,24.67
2022-08-23T17:08:11.276Z,24.64
2022-08-23T17:10:39.700Z,24.62
2022-08-23T17:13:08.807Z,24.58
2022-08-23T17:15:37.772Z,24.57
2022-08-23T17:18:06.373Z,24.55
2022-08-23T17:20:37.199Z,24.51
2022-08-23T17:23:05.670Z,24.47
2022-08-23T17:25:34.572Z,24.33
2022-08-23T17:28:03.732Z,24.23
2022-08-23T17:30:31.982Z,24.14
2022-08-23T17:33:00.130Z,24.06
2022-08-23T17:35:34.259Z,23.99
2022-08-23T17:38:04.952Z,23.95
2022-08-23T17:40:35.603Z,23.87
2022-08-23T17:43:04.896Z,23.78
2022-08-23T17:45:42.747Z,23.69
2022-08-23T17:48:14.563Z,23.63
2022-08-23T17:50:43.676Z,23.57
2022-08-23T17:53:13.438Z,23.54
2022-08-23T17:55:42.991Z,23.49
2022-08-23T17:58:11.351Z,23.44
2022-08-23T18:00:40.312Z,23.41
2022-08-23T18:03:08.512Z,23.38
2022-08-23T18:05:40.355Z,23.33
2022-08-23T18:08:10.175Z,23.28
2022-08-23T18:10:39.004Z,23.23
2022-08-23T18:13:07.362Z,23.19
2022-08-23T18:15:36.947Z,23.16
2022-08-23T18:18:05.809Z,23.13
2022-08-23T18:20:34.327Z,23.09
2022-08-23T18:23:03.333Z,23.08
2022-08-23T18:25:45.293Z,23.06
2022-08-23T18:28:14.344Z,23.00
2022-08-23T18:31:37.494Z,22.96
2022-08-23T18:34:31.331Z,22.93
2022-08-23T18:37:02.483Z,22.89
2022-08-23T18:39:32.196Z,22.85
2022-08-23T18:42:01.465Z,22.84
2022-08-23T18:44:30.041Z,22.80
2022-08-23T18:58:38.821Z,23.26
2022-08-23T19:01:27.121Z,23.10
2022-08-23T19:04:01.043Z,22.85
2022-08-23T19:06:34.356Z,22.65
2022-08-23T19:09:07.141Z,22.48
2022-08-23T19:11:39.649Z,22.35
2022-08-23T19:14:12.981Z,22.21
2022-08-23T19:16:48.577Z,22.06
2022-08-23T19:19:20.836Z,21.90
2022-08-23T19:21:52.571Z,21.77
2022-08-23T19:24:24.766Z,21.68
2022-08-23T19:26:57.346Z,21.58
2022-08-23T19:29:29.097Z,21.51
2022-08-23T19:32:03.967Z,21.45
2022-08-23T19:34:35.853Z,21.36
2022-08-23T19:37:10.781Z,21.31
2022-08-23T19:39:54.987Z,21.27
2022-08-23T19:42:27.959Z,21.25
2022-08-23T19:45:08.728Z,21.22
2022-08-23T19:47:40.961Z,21.19
2022-08-23T19:50:13.521Z,21.16
2022-08-23T19:52:45.183Z,21.13
2022-08-23T19:55:17.845Z,21.08
2022-08-23T19:57:58.512Z,21.03
2022-08-23T20:00:31.623Z,21.03
2022-08-23T20:03:03.557Z,21.03
2022-08-23T20:05:35.464Z,21.05
2022-08-23T20:08:09.580Z,21.06
2022-08-23T20:10:44.901Z,21.09
2022-08-23T20:13:16.420Z,21.10
2022-08-23T20:15:48.112Z,21.11
2022-08-23T20:18:22.388Z,21.11
2022-08-23T20:20:55.094Z,21.11
2022-08-23T20:23:44.552Z,21.11
2022-08-23T20:26:16.076Z,21.12
2022-08-23T20:28:59.218Z,21.12
2022-08-23T20:31:35.147Z,21.10
2022-08-23T20:34:08.853Z,21.07
2022-08-23T20:36:43.405Z,21.02
2022-08-23T20:39:24.151Z,21.00
2022-08-23T20:41:58.088Z,20.98
2022-08-23T20:44:30.216Z,20.98
2022-08-23T20:47:03.789Z,20.99
2022-08-23T20:49:35.606Z,21.00
2022-08-23T20:52:08.317Z,21.01
2022-08-23T20:54:40.233Z,21.01
2022-08-23T20:57:11.956Z,21.00
2022-08-23T20:59:44.908Z,21.00
2022-08-23T21:02:19.272Z,21.01
2022-08-23T21:04:51.197Z,21.00
2022-08-23T21:07:22.726Z,20.99
2022-08-23T21:09:58.295Z,20.99
2022-08-23T21:12:29.907Z,20.98
2022-08-23T21:15:01.548Z,20.97
2022-08-23T21:17:34.119Z,20.94
2022-08-23T21:20:07.962Z,20.94
2022-08-23T21:22:39.736Z,20.96
2022-08-23T21:25:13.374Z,20.97
2022-08-23T21:27:44.925Z,21.00
2022-08-23T21:30:17.753Z,21.05
2022-08-23T21:32:49.580Z,21.09
2022-08-23T21:35:21.553Z,21.13
2022-08-23T21:37:53.324Z,21.13
2022-08-23T21:40:25.095Z,21.14
2022-08-23T21:42:57.765Z,21.16
2022-08-23T21:45:29.664Z,21.20
2022-08-23T21:48:02.830Z,21.23
2022-08-23T21:50:34.525Z,21.25
2022-08-23T21:53:06.247Z,21.23
2022-08-23T21:55:39.263Z,21.21
2022-08-23T21:58:12.826Z,21.18
2022-08-23T22:00:45.657Z,21.17
2022-08-23T22:03:17.284Z,21.16
2022-08-23T22:05:49.181Z,21.15
2022-08-23T22:08:20.801Z,21.14
2022-08-23T22:10:57.679Z,21.16
2022-08-23T22:13:30.716Z,21.21
2022-08-23T22:16:02.830Z,21.24
2022-08-23T22:18:35.113Z,21.22
2022-08-23T22:21:07.379Z,21.22
2022-08-23T22:23:43.349Z,21.25
2022-08-23T22:26:15.746Z,21.23
2022-08-23T22:28:47.907Z,21.20
2022-08-23T22:31:20.071Z,21.20
2022-08-23T22:33:52.861Z,21.20
2022-08-23T22:36:26.026Z,21.20
2022-08-23T22:38:58.187Z,21.19
2022-08-23T22:41:31.702Z,21.17
2022-08-23T22:44:05.869Z,21.14
2022-08-23T22:46:37.534Z,21.14
2022-08-23T22:49:09.985Z,21.11
2022-08-23T22:51:43.084Z,21.08
2022-08-23T22:54:15.461Z,21.07
2022-08-23T22:56:52.907Z,21.08
2022-08-23T22:59:27.692Z,21.02
2022-08-23T23:02:05.074Z,20.99
2022-08-23T23:04:37.157Z,20.99
2022-08-23T23:07:08.856Z,20.99
2022-08-23T23:09:43.720Z,21.01
2022-08-23T23:12:15.405Z,21.00
2022-08-23T23:14:47.551Z,21.01
2022-08-23T23:17:19.191Z,21.00
2022-08-23T23:20:08.427Z,20.97
2022-08-23T23:22:40.177Z,20.95
2022-08-23T23:25:11.914Z,20.95
2022-08-23T23:27:45.172Z,20.95
2022-08-23T23:30:19.684Z,20.97
2022-08-23T23:32:51.809Z,20.98
2022-08-23T23:35:23.575Z,21.00
2022-08-23T23:37:55.202Z,21.02
2022-08-23T23:40:27.718Z,21.03
2022-08-23T23:42:59.602Z,21.03
2022-08-23T23:45:31.909Z,21.00
2022-08-23T23:48:04.131Z,20.99
2022-08-23T23:50:46.869Z,20.98
2022-08-23T23:53:18.776Z,20.98
2022-08-23T23:55:50.465Z,21.01
2022-08-23T23:58:22.524Z,21.06
